This is the latest recevied weather packets stored in our database for station/object DH5DY-6. If no packets are shown the sender has not sent any weather packets the latest 10 day(s).
| Time | Temp. | Humidity | Pressure | Rain* | Wind** | Luminosity | Snow |
|---|---|---|---|---|---|---|---|
| 1787937151 | 20.56° C | 82% | 1007.6 hPa | 0 mm | - | 118 W/m² | - |
| 1787935950 | 19.44° C | 83% | 1007.4 hPa | 0 mm | - | 223 W/m² | - |
| 1787935350 | 19.44° C | 82% | 1007.5 hPa | 0 mm | - | 246 W/m² | - |
| 1787934149 | 20° C | 81% | 1007.3 hPa | 0 mm | - | 51 W/m² | - |
| 1787933549 | 20.56° C | 81% | 1007.5 hPa | 0 mm | - | 281 W/m² | - |
| 1787932349 | 20.56° C | 87% | 1007.7 hPa | 0.25 mm | - | 339 W/m² | - |
| 1787931749 | 20° C | 89% | 1007.8 hPa | 1.02 mm | - | 374 W/m² | - |
| 1787930549 | 18.89° C | 93% | 1008.3 hPa | 2.29 mm | - | 221 W/m² | - |
| 1787929949 | 18.33° C | 93% | 1008.1 hPa | 2.29 mm | - | 276 W/m² | - |
| 1787928749 | 17.78° C | 92% | 1007.9 hPa | 2.29 mm | - | 97 W/m² | - |
| 1787928148 | 17.78° C | 92% | 1007.6 hPa | 7.11 mm | - | 37 W/m² | - |
| 1787926949 | 17.78° C | 93% | 1007.5 hPa | 9.4 mm | - | 60 W/m² | - |
| 1787926348 | 17.78° C | 93% | 1007.4 hPa | 11.18 mm | - | 190 W/m² | - |
| 1787925148 | 17.22° C | 92% | 1007.8 hPa | 15.75 mm | - | 148 W/m² | - |
| 1787924549 | 17.22° C | 91% | 1007.9 hPa | 10.16 mm | - | 16 W/m² | - |
| 1787923348 | 17.22° C | 88% | 1007.2 hPa | 6.86 mm | - | 46 W/m² | - |
| 1787922749 | 17.78° C | 85% | 1007.2 hPa | 5.08 mm | - | 25 W/m² | - |
| 1787920948 | 22.22° C | 78% | 1006.6 hPa | 0 mm | - | 158 W/m² | - |
| 1787919748 | 21.67° C | 83% | 1006.8 hPa | 0 mm | - | 696 W/m² | - |
| 1787919148 | 21.67° C | 84% | 1006.9 hPa | 0 mm | - | 722 W/m² | - |
| 1787917347 | 20.56° C | 88% | 1007.3 hPa | 0 mm | - | 475 W/m² | - |
| 1787916149 | 20° C | 91% | 1007.3 hPa | 6.1 mm | - | 278 W/m² | - |
| 1787915548 | 19.44° C | 91% | 1007.2 hPa | 9.4 mm | - | 292 W/m² | - |
| 1787914348 | 18.89° C | 91% | 1007.5 hPa | 9.4 mm | - | 283 W/m² | - |
| 1787913747 | 18.89° C | 91% | 1007.3 hPa | 9.4 mm | - | 155 W/m² | - |
* Rain latest hour (hover to see other rain measurements)
** Current wind speed in m/s (hover to see current wind gust speed)